Time;durP1;ratioP1;P1;durP2;ratioP2;P2;SDS_P1;SDS_P2;PMS_P1;PMS_P2;Temp;Humidity;BMP_temperature;BMP_pressure;BME280_temperature;BME280_humidity;BME280_pressure;Samples;Min_cycle;Max_cycle;Signal;HPM_P1;HPM_P2
2022/08/07 08:01:45;;;;;;;9.07;7.90;;;;;;;17.92;60.61;102436.38;5309268;27;20356;-78
2022/08/07 08:04:19;;;;;;;8.05;7.25;;;;;;;18.01;60.52;102435.41;5287167;28;20130;-78
2022/08/07 08:06:52;;;;;;;11.00;8.10;;;;;;;18.11;60.10;102440.06;5293891;28;20025;-78
2022/08/07 08:09:28;;;;;;;7.55;6.60;;;;;;;18.18;59.48;102437.72;5300189;28;20067;-79
2022/08/07 08:12:02;;;;;;;7.53;6.50;;;;;;;18.27;58.43;102442.66;5284557;28;20033;-75
2022/08/07 08:14:34;;;;;;;7.00;6.25;;;;;;;18.31;58.23;102443.72;5285012;28;20056;-79
2022/08/07 08:17:09;;;;;;;6.53;5.93;;;;;;;18.31;59.10;102441.75;5301491;28;20024;-87
2022/08/07 08:19:41;;;;;;;7.80;6.72;;;;;;;18.35;58.73;102441.97;5303696;28;20065;-88
2022/08/07 08:27:54;;;;;;;9.77;5.78;;;;;;;18.58;57.66;102449.44;5295338;28;20111;-78
2022/08/07 08:30:27;;;;;;;5.90;5.30;;;;;;;18.54;57.01;102442.78;5296463;28;20100;-78
2022/08/07 08:33:01;;;;;;;5.78;4.85;;;;;;;18.60;56.80;102440.72;5287711;28;20093;-78
2022/08/07 08:35:34;;;;;;;6.93;5.70;;;;;;;18.61;57.60;102439.56;5300024;28;20029;-76
2022/08/07 08:38:08;;;;;;;6.53;4.75;;;;;;;18.72;56.92;102437.47;5299285;28;20028;-76
2022/08/07 08:40:46;;;;;;;21.17;18.85;;;;;;;18.78;56.45;102444.69;5294177;28;20527;-76
2022/08/07 08:43:34;;;;;;;8.30;4.63;;;;;;;18.94;54.84;102445.25;5289325;28;20106;-78
2022/08/07 08:46:23;;;;;;;6.88;3.92;;;;;;;18.97;56.11;102451.09;5298180;28;20056;-78
2022/08/07 08:49:03;;;;;;;7.88;4.30;;;;;;;19.05;55.91;102446.75;5299968;28;20028;-78
2022/08/07 08:51:44;;;;;;;5.80;4.80;;;;;;;19.14;56.07;102444.88;5299449;28;20024;-78
2022/08/07 08:54:18;;;;;;;5.30;4.32;;;;;;;19.26;54.74;102450.03;5296818;28;20028;-78
2022/08/07 08:56:52;;;;;;;4.38;3.60;;;;;;;19.24;54.13;102441.06;5289063;28;20478;-78
2022/08/07 08:59:34;;;;;;;5.93;4.35;;;;;;;19.27;54.05;102443.22;5299881;28;20111;-78
2022/08/07 09:02:30;;;;;;;4.90;4.40;;;;;;;19.50;55.22;102442.22;5321026;28;20031;-78
2022/08/07 09:05:26;;;;;;;5.03;3.53;;;;;;;19.60;55.07;102440.34;5319937;28;20049;-80
2022/08/07 09:08:00;;;;;;;;;;;;;;;19.61;55.25;102442.88;5314299;28;20028;-77
2022/08/07 09:10:46;;;;;;;86.65;77.25;;;;;;;19.58;54.85;102437.00;5304397;28;19916;-79
2022/08/07 09:13:38;;;;;;;6.20;5.60;;;;;;;19.73;53.39;102434.72;5299950;28;20103;-78
2022/08/07 09:16:20;;;;;;;4.45;4.03;;;;;;;19.72;52.46;102430.25;5295424;28;20028;-79
2022/08/07 09:19:13;;;;;;;7.65;4.15;;;;;;;19.82;52.53;102434.84;5299946;28;20043;-78
2022/08/07 09:22:09;;;;;;;8.30;4.20;;;;;;;19.79;51.90;102432.66;5291447;28;20082;-77
2022/08/07 09:25:15;;;;;;;7.97;4.22;;;;;;;19.95;51.84;102435.97;5290906;28;20024;-79
2022/08/07 09:28:04;;;;;;;6.32;3.35;;;;;;;19.97;50.71;102428.88;5305737;28;20020;-78
2022/08/07 09:30:59;;;;;;;5.13;3.42;;;;;;;20.09;49.74;102433.13;5290360;28;20020;-78
2022/08/07 09:33:45;;;;;;;4.30;3.60;;;;;;;20.02;50.20;102424.28;5298245;28;20020;-78
2022/08/07 09:36:23;;;;;;;4.78;3.72;;;;;;;20.19;50.13;102413.19;5289423;28;20033;-78
2022/08/07 09:39:01;;;;;;;7.65;6.35;;;;;;;20.39;50.04;102421.13;5298455;28;20064;-78
2022/08/07 09:42:00;;;;;;;5.63;3.65;;;;;;;20.56;49.52;102420.50;5301237;28;20118;-78
2022/08/07 09:44:51;;;;;;;5.47;3.10;;;;;;;20.62;47.56;102424.00;5289351;28;20028;-77
2022/08/07 09:47:36;;;;;;;4.68;3.40;;;;;;;20.51;48.73;102414.13;5304550;28;20032;-76
2022/08/07 09:50:30;;;;;;;4.60;3.45;;;;;;;20.55;48.99;102418.81;5295641;28;20616;-75
2022/08/07 09:53:06;;;;;;;4.35;3.30;;;;;;;20.52;47.45;102408.16;5348670;22;20262;-75
2022/08/07 09:55:56;;;;;;;;;;;;;;;20.71;47.21;102401.50;5256211;28;20022;-75
2022/08/07 09:58:45;;;;;;;4.05;3.03;;;;;;;20.75;47.20;102403.38;5249629;28;20330;-75
2022/08/07 10:01:38;;;;;;;4.30;3.10;;;;;;;20.95;46.97;102402.00;5253567;28;20033;-78
2022/08/07 10:04:15;;;;;;;3.55;3.22;;;;;;;20.79;46.39;102393.13;5246235;28;20025;-76
2022/08/07 10:07:24;;;;;;;4.50;2.97;;;;;;;20.83;45.62;102388.50;5255117;28;20059;-75
2022/08/07 10:10:27;;;;;;;4.45;3.33;;;;;;;20.89;46.34;102391.16;5256238;28;20078;-75
2022/08/07 10:13:40;;;;;;;4.45;2.90;;;;;;;20.95;45.89;102385.09;5236793;28;20195;-73
2022/08/07 10:16:48;;;;;;;5.95;3.05;;;;;;;21.02;45.30;102382.63;5243869;28;20393;-74
2022/08/07 10:19:45;;;;;;;4.78;3.15;;;;;;;21.10;45.87;102375.38;5248861;28;20029;-78
2022/08/07 10:22:34;;;;;;;5.10;4.45;;;;;;;21.15;46.48;102372.41;5259218;28;20056;-78
2022/08/07 10:25:33;;;;;;;7.05;3.33;;;;;;;21.28;46.28;102377.09;5251523;28;20099;-77
2022/08/07 10:28:18;;;;;;;6.82;3.38;;;;;;;21.33;46.00;102375.31;5247006;28;20028;-77
2022/08/07 10:31:11;;;;;;;6.22;4.35;;;;;;;21.32;45.95;102370.81;5240670;28;20028;-79
2022/08/07 10:33:51;;;;;;;3.60;2.53;;;;;;;21.40;44.89;102367.25;5254923;28;20346;-79
2022/08/07 10:36:27;;;;;;;6.28;2.90;;;;;;;21.51;44.86;102368.59;5259198;28;20028;-79
2022/08/07 10:39:15;;;;;;;6.60;5.80;;;;;;;21.37;44.62;102367.84;5249951;28;20036;-79
2022/08/07 10:41:56;;;;;;;6.88;6.13;;;;;;;21.38;44.81;102367.56;5252073;28;20048;-82
2022/08/07 10:44:44;;;;;;;3.08;2.60;;;;;;;21.27;44.70;102369.81;5262545;28;20028;-81
2022/08/07 10:47:30;;;;;;;3.67;3.10;;;;;;;21.14;44.55;102358.63;5256007;28;20020;-78
2022/08/07 10:50:31;;;;;;;2.83;2.53;;;;;;;21.06;44.52;102363.06;5254352;28;20024;-82
2022/08/07 10:53:51;;;;;;;3.72;2.38;;;;;;;21.12;44.20;102356.16;5254392;28;20094;-82
2022/08/07 10:56:53;;;;;;;4.90;2.75;;;;;;;21.26;42.81;102362.50;5204638;28;20401;-80
2022/08/07 10:59:52;;;;;;;4.68;2.70;;;;;;;21.44;42.99;102354.94;5254609;28;20125;-83
2022/08/07 11:02:31;;;;;;;7.97;6.97;;;;;;;21.64;42.54;102349.84;5266630;28;20032;-80
2022/08/07 11:05:27;;;;;;;4.82;2.55;;;;;;;21.55;41.76;102349.84;5251234;28;20047;-80
2022/08/07 11:08:05;;;;;;;3.65;2.90;;;;;;;21.52;42.10;102339.19;5248317;28;20033;-81
2022/08/07 11:10:54;;;;;;;6.10;2.58;;;;;;;21.84;42.77;102348.41;5232652;28;20033;-80
2022/08/07 11:13:48;;;;;;;9.75;8.90;;;;;;;21.88;42.77;102335.25;5249748;28;20025;-81
2022/08/07 11:16:42;;;;;;;4.10;2.35;;;;;;;21.83;41.96;102335.44;5246603;28;20403;-79
2022/08/07 11:19:39;;;;;;;3.22;2.53;;;;;;;21.95;41.73;102329.97;5252133;28;20440;-81
2022/08/07 11:22:40;;;;;;;3.40;2.72;;;;;;;22.00;42.13;102331.78;5258474;28;20066;-80
2022/08/07 11:25:24;;;;;;;3.92;2.50;;;;;;;22.04;41.45;102327.97;5240282;28;20036;-80
2022/08/07 11:28:07;;;;;;;4.03;2.28;;;;;;;22.22;40.74;102322.34;5257500;28;20064;-80
2022/08/07 11:31:01;;;;;;;3.22;2.85;;;;;;;22.37;40.46;102316.19;5232401;28;20056;-80
2022/08/07 11:33:56;;;;;;;3.47;2.50;;;;;;;22.54;40.46;102316.13;5246162;28;20025;-80
2022/08/07 11:36:53;;;;;;;5.63;2.60;;;;;;;22.77;39.15;102313.91;5249116;28;20025;-80
2022/08/07 11:39:59;;;;;;;3.15;2.05;;;;;;;22.91;38.96;102321.38;5250247;28;20380;-80
2022/08/07 11:42:47;;;;;;;4.05;2.35;;;;;;;22.90;38.47;102306.38;5240947;28;20033;-80
2022/08/07 11:45:44;;;;;;;3.85;3.33;;;;;;;23.10;38.26;102304.00;5252485;28;20029;-80
2022/08/07 11:48:29;;;;;;;4.20;2.50;;;;;;;23.16;38.41;102300.66;5242884;28;20056;-78
2022/08/07 11:51:31;;;;;;;3.55;2.47;;;;;;;23.26;38.65;102305.06;5249746;28;20032;-81
2022/08/07 11:54:14;;;;;;;3.85;2.30;;;;;;;23.16;38.29;102296.97;5245449;28;20053;-80
2022/08/07 11:57:27;;;;;;;4.20;1.98;;;;;;;23.22;38.56;102301.28;5254760;28;20408;-79
2022/08/07 12:00:11;;;;;;;2.65;2.38;;;;;;;23.24;38.04;102298.94;5252895;28;20056;-79
2022/08/07 12:02:57;;;;;;;4.28;2.28;;;;;;;23.37;36.32;102303.53;5227165;28;20559;-79
2022/08/07 12:05:42;;;;;;;2.97;2.13;;;;;;;23.43;36.31;102296.47;5248479;28;20037;-76
2022/08/07 12:08:21;;;;;;;2.38;1.80;;;;;;;23.66;36.92;102299.00;5249342;28;20105;-76
2022/08/07 12:11:21;;;;;;;4.32;2.40;;;;;;;23.82;36.15;102296.41;5253508;28;20534;-80
2022/08/07 12:14:12;;;;;;;2.72;2.20;;;;;;;23.73;36.23;102287.97;5242931;28;20476;-81
2022/08/07 12:16:52;;;;;;;3.08;2.05;;;;;;;23.80;36.25;102288.25;5231983;28;20047;-81
2022/08/07 12:19:40;;;;;;;2.20;2.00;;;;;;;23.90;36.50;102291.84;5260053;28;20104;-81
2022/08/07 12:22:22;;;;;;;2.60;2.20;;;;;;;23.63;35.61;102285.53;5243923;28;20052;-81
2022/08/07 12:28:01;;;;;;;4.50;2.60;;;;;;;24.03;35.76;102282.22;5240352;28;20037;-81
2022/08/07 12:30:37;;;;;;;2.90;2.55;;;;;;;24.16;36.27;102281.09;5237607;28;20029;-82
2022/08/07 12:33:17;;;;;;;3.25;2.45;;;;;;;24.25;36.70;102270.50;5251668;28;20048;-80
2022/08/07 12:35:51;;;;;;;2.90;2.40;;;;;;;24.10;36.15;102279.66;5256343;28;20117;-82
2022/08/07 12:38:23;;;;;;;3.40;2.45;;;;;;;24.15;36.01;102265.25;5245311;28;20480;-80
2022/08/07 12:40:58;;;;;;;3.53;2.67;;;;;;;24.19;36.44;102266.22;5251803;28;20060;-80
2022/08/07 12:43:33;;;;;;;2.92;2.22;;;;;;;24.17;36.56;102274.25;5249875;28;20353;-79
2022/08/07 12:46:08;;;;;;;;;;;;;;;24.45;36.37;102273.66;5243949;28;20045;-79
2022/08/07 12:49:05;;;;;;;2.60;2.37;;;;;;;24.29;35.98;102260.13;5261117;28;19913;-82
2022/08/07 12:52:08;;;;;;;25.35;22.95;;;;;;;24.53;34.40;102269.91;5257611;28;20029;-82
2022/08/07 12:54:45;;;;;;;3.95;2.97;;;;;;;24.71;34.14;102262.84;5234840;28;20052;-81
2022/08/07 12:57:23;;;;;;;3.15;1.95;;;;;;;24.79;33.86;102271.59;5254150;28;20148;-82
2022/08/07 12:59:58;;;;;;;3.10;2.70;;;;;;;24.73;34.00;102271.81;5260381;28;20112;-82
2022/08/07 13:02:49;;;;;;;2.88;2.28;;;;;;;24.64;33.94;102262.56;5248696;28;20430;-80
2022/08/07 13:05:50;;;;;;;2.63;2.10;;;;;;;24.61;34.43;102259.63;5254067;28;20025;-81
2022/08/07 13:08:31;;;;;;;2.55;2.35;;;;;;;24.67;34.33;102259.06;5254655;28;20384;-80
2022/08/07 13:11:08;;;;;;;2.55;2.20;;;;;;;24.66;33.49;102254.56;5255269;28;20033;-80
2022/08/07 13:13:59;;;;;;;4.20;1.90;;;;;;;24.96;33.68;102251.50;5250870;28;20104;-80
2022/08/07 13:16:47;;;;;;;2.67;1.80;;;;;;;24.94;33.62;102245.34;5232148;28;20114;-81
2022/08/07 13:19:42;;;;;;;2.08;1.85;;;;;;;25.05;33.57;102240.84;5253278;28;20037;-78
2022/08/07 13:22:20;;;;;;;3.42;2.20;;;;;;;25.07;33.69;102252.69;5260511;28;20041;-79
2022/08/07 13:24:59;;;;;;;2.53;2.30;;;;;;;24.79;33.68;102251.72;5251303;28;20100;-79
2022/08/07 13:27:47;;;;;;;4.28;2.42;;;;;;;24.87;34.56;102240.25;5247395;28;20030;-79
2022/08/07 13:30:22;;;;;;;3.83;1.88;;;;;;;25.07;34.38;102249.03;5258018;28;20079;-81
2022/08/07 13:33:08;;;;;;;;;;;;;;;25.58;34.23;102241.75;5252368;28;20028;-81
2022/08/07 13:35:40;;;;;;;4.63;2.88;;;;;;;25.42;34.36;102238.00;5245120;28;20469;-80
2022/08/07 13:38:33;;;;;;;4.20;2.40;;;;;;;25.62;33.70;102229.66;5257653;28;20086;-80
2022/08/07 13:41:37;;;;;;;2.20;2.00;;;;;;;25.95;33.26;102227.44;5251565;28;20425;-80
2022/08/07 13:44:11;;;;;;;4.10;2.42;;;;;;;25.79;32.19;102230.19;5242574;28;20045;-77
2022/08/07 13:46:46;;;;;;;3.90;1.90;;;;;;;25.94;32.78;102224.97;5258148;28;20175;-77
2022/08/07 13:49:19;;;;;;;2.33;2.10;;;;;;;25.82;33.16;102225.78;5254010;28;20025;-81
2022/08/07 13:51:55;;;;;;;2.70;2.17;;;;;;;25.88;33.25;102224.41;5249299;28;20030;-81
2022/08/07 13:54:29;;;;;;;2.70;2.15;;;;;;;25.90;33.02;102224.88;5263502;28;20488;-81
2022/08/07 13:57:07;;;;;;;2.80;2.45;;;;;;;25.89;32.65;102217.50;5254980;28;20072;-81
2022/08/07 13:59:44;;;;;;;2.10;1.88;;;;;;;26.12;32.81;102225.47;5256972;28;20449;-81
2022/08/07 14:02:23;;;;;;;3.05;2.22;;;;;;;26.25;32.76;102212.81;5246802;28;20029;-80
2022/08/07 14:05:02;;;;;;;2.33;2.13;;;;;;;26.14;33.01;102218.22;5255571;28;20029;-81
2022/08/07 14:07:43;;;;;;;2.85;2.40;;;;;;;26.07;32.65;102215.19;5249505;28;20021;-82
2022/08/07 14:10:16;;;;;;;2.53;2.33;;;;;;;25.95;32.09;102221.78;5258395;28;20110;-81
2022/08/07 14:13:01;;;;;;;3.00;2.10;;;;;;;25.74;32.14;102216.25;5249996;28;20078;-81
2022/08/07 14:15:37;;;;;;;4.18;2.63;;;;;;;25.97;32.12;102204.34;5254867;28;20024;-80
2022/08/07 14:18:25;;;;;;;2.97;2.10;;;;;;;26.24;32.45;102205.50;5247075;28;20554;-82
2022/08/07 14:21:13;;;;;;;4.00;2.47;;;;;;;26.36;31.59;102201.75;5255347;28;20033;-80
2022/08/07 14:23:56;;;;;;;2.22;2.03;;;;;;;26.55;31.51;102206.75;5250481;28;20051;-80
2022/08/07 14:26:38;;;;;;;4.78;2.85;;;;;;;26.66;31.33;102219.22;5226323;28;20029;-78
2022/08/07 14:29:14;;;;;;;67.15;60.47;;;;;;;26.55;31.21;102213.25;5239597;28;20104;-80
2022/08/07 14:31:48;;;;;;;5.35;2.88;;;;;;;26.44;31.05;102207.25;5243256;28;20030;-78
2022/08/07 14:34:30;;;;;;;2.85;2.20;;;;;;;26.48;31.39;102198.81;5259050;28;20060;-77
2022/08/07 14:37:09;;;;;;;5.22;3.20;;;;;;;26.70;31.07;102203.06;5246458;28;20056;-81
2022/08/07 14:39:43;;;;;;;2.25;1.90;;;;;;;26.70;30.78;102203.06;5242713;28;20025;-81
2022/08/07 14:42:23;;;;;;;2.67;1.95;;;;;;;26.86;30.75;102198.19;5258640;28;20091;-81
2022/08/07 14:44:58;;;;;;;2.33;2.10;;;;;;;26.82;31.13;102196.47;5243768;28;20387;-82
2022/08/07 14:47:32;;;;;;;2.50;1.98;;;;;;;26.81;31.71;102200.47;5250330;28;20025;-81
2022/08/07 14:50:06;;;;;;;2.20;1.88;;;;;;;26.52;31.03;102196.94;5246789;28;20033;-81
2022/08/07 14:52:41;;;;;;;3.40;2.10;;;;;;;26.38;30.92;102191.69;5256855;28;20022;-79
2022/08/07 14:55:15;;;;;;;3.15;1.92;;;;;;;26.31;30.69;102194.31;5243367;28;20101;-81
2022/08/07 14:57:49;;;;;;;4.68;2.00;;;;;;;26.34;31.02;102193.59;5256227;28;20437;-79
2022/08/07 15:00:28;;;;;;;2.60;2.13;;;;;;;26.02;31.40;102190.69;5246485;28;20071;-77
2022/08/07 15:03:03;;;;;;;3.05;2.75;;;;;;;26.22;31.61;102196.50;5251414;28;20020;-76
2022/08/07 15:05:37;;;;;;;2.70;1.60;;;;;;;25.89;31.82;102197.63;5248423;28;20021;-75
2022/08/07 15:08:11;;;;;;;2.13;1.80;;;;;;;26.07;31.32;102183.09;5259658;28;20021;-77
2022/08/07 15:10:44;;;;;;;2.70;2.40;;;;;;;26.06;30.47;102187.13;5255943;28;20029;-77
2022/08/07 15:13:22;;;;;;;24.63;22.20;;;;;;;25.93;30.79;102192.06;5241420;28;20033;-78
2022/08/07 15:15:59;;;;;;;2.85;1.80;;;;;;;25.87;30.48;102182.94;5232991;28;20033;-79
2022/08/07 15:18:36;;;;;;;16.48;15.07;;;;;;;26.04;30.84;102184.66;5229233;28;20033;-80
2022/08/07 15:21:14;;;;;;;2.83;2.15;;;;;;;25.69;31.19;102190.09;5252811;28;20060;-80
2022/08/07 15:23:48;;;;;;;2.75;1.65;;;;;;;25.85;30.94;102179.66;5256755;28;20025;-78
2022/08/07 15:26:30;;;;;;;1.83;1.52;;;;;;;25.89;31.19;102177.72;5245155;28;20017;-78
2022/08/07 15:29:05;;;;;;;2.50;2.25;;;;;;;25.73;31.20;102183.34;5246130;28;20033;-78
2022/08/07 15:31:39;;;;;;;2.30;2.10;;;;;;;25.50;32.06;102180.25;5255556;28;20040;-79
2022/08/07 15:34:11;;;;;;;2.45;2.10;;;;;;;25.61;31.90;102177.72;5245268;28;20029;-79
2022/08/07 15:36:46;;;;;;;1.90;1.52;;;;;;;25.60;31.03;102174.03;5255758;28;20035;-81
2022/08/07 15:39:22;;;;;;;3.88;1.60;;;;;;;25.51;31.31;102173.34;5241151;28;20528;-80
2022/08/07 15:42:35;;;;;;;3.83;1.60;;;;;;;25.52;31.53;102171.38;5256230;28;20045;-81
2022/08/07 15:45:17;;;;;;;2.30;2.10;;;;;;;25.37;32.21;102172.94;5239559;28;20040;-80
2022/08/07 15:47:53;;;;;;;1.58;1.48;;;;;;;25.44;32.28;102161.81;5235381;28;20025;-76
2022/08/07 15:50:32;;;;;;;3.03;2.22;;;;;;;25.40;32.29;102166.53;5257703;28;20104;-76
2022/08/07 15:53:11;;;;;;;3.42;2.10;;;;;;;25.37;32.60;102156.72;5241979;28;20421;-76
2022/08/07 15:55:50;;;;;;;3.13;1.70;;;;;;;25.25;31.80;102158.78;5241382;28;20025;-75
2022/08/07 15:58:38;;;;;;;2.42;1.42;;;;;;;25.22;31.66;102153.84;5257483;28;20021;-75
2022/08/07 16:01:18;;;;;;;2.60;1.88;;;;;;;25.20;32.12;102157.00;5250345;28;20028;-75
2022/08/07 16:04:00;;;;;;;4.07;1.65;;;;;;;25.33;31.75;102157.81;5245657;28;20033;-75
2022/08/07 16:06:37;;;;;;;2.85;1.88;;;;;;;25.62;32.00;102155.81;5229615;28;20472;-78
2022/08/07 16:09:15;;;;;;;2.00;1.80;;;;;;;25.30;31.32;102153.66;5263787;28;20056;-77
2022/08/07 16:12:09;;;;;;;2.78;1.50;;;;;;;25.55;31.25;102153.59;5246992;28;20052;-77
2022/08/07 16:15:05;;;;;;;1.58;1.48;;;;;;;25.41;31.42;102151.16;5241691;28;20391;-77
2022/08/07 16:18:00;;;;;;;5.53;1.75;;;;;;;25.54;31.63;102147.09;5250140;28;20030;-77
2022/08/07 16:20:59;;;;;;;2.25;1.50;;;;;;;25.45;32.03;102146.41;5241185;28;20026;-75
2022/08/07 16:23:57;;;;;;;2.13;1.30;;;;;;;25.26;32.46;102149.06;5245947;28;20034;-76
2022/08/07 16:26:42;;;;;;;2.35;1.33;;;;;;;25.42;32.28;102143.47;5261508;28;20044;-76
2022/08/07 16:29:38;;;;;;;1.90;1.70;;;;;;;25.41;32.30;102148.31;5252515;28;20033;-76
2022/08/07 16:32:21;;;;;;;3.13;1.50;;;;;;;25.72;31.70;102152.44;5262001;28;20039;-76
2022/08/07 16:35:07;;;;;;;1.50;1.40;;;;;;;25.48;32.68;102145.69;5248882;28;20171;-76
2022/08/07 16:38:08;;;;;;;3.55;1.70;;;;;;;25.71;32.74;102147.97;5253591;28;20029;-76
2022/08/07 16:41:04;;;;;;;1.63;1.42;;;;;;;25.63;32.58;102148.94;5235610;28;20020;-76
2022/08/07 16:44:09;;;;;;;2.88;1.48;;;;;;;25.79;32.85;102136.41;5251558;28;20048;-77
2022/08/07 16:47:06;;;;;;;2.42;1.75;;;;;;;25.61;32.74;102140.78;5229898;28;20029;-77
2022/08/07 16:50:13;;;;;;;3.15;1.80;;;;;;;25.76;33.15;102133.50;5258310;28;20025;-77
2022/08/07 16:52:53;;;;;;;;;;;;;;;25.93;33.15;102136.03;5225524;28;20040;-77
2022/08/07 16:55:32;;;;;;;2.95;2.30;;;;;;;25.74;33.39;102136.69;5236276;28;19920;-76
2022/08/07 16:58:14;;;;;;;2.17;1.70;;;;;;;25.94;33.23;102129.16;5260065;28;20032;-78
2022/08/07 17:01:17;;;;;;;1.98;1.75;;;;;;;25.82;33.44;102129.19;5248574;28;20140;-78
2022/08/07 17:04:02;;;;;;;1.95;1.63;;;;;;;25.51;34.05;102129.94;5250045;28;20084;-78
2022/08/07 17:06:48;;;;;;;1.80;1.60;;;;;;;25.67;33.82;102133.66;5248820;28;20082;-78
2022/08/07 17:09:38;;;;;;;3.70;1.73;;;;;;;25.81;34.01;102133.22;5254491;28;20068;-78
2022/08/07 17:12:23;;;;;;;3.03;1.70;;;;;;;25.58;35.24;102127.31;5250876;28;20033;-78
2022/08/07 17:15:45;;;;;;;3.27;2.57;;;;;;;25.71;35.46;102128.06;5239249;28;20076;-79
2022/08/07 17:18:31;;;;;;;3.50;2.53;;;;;;;25.36;36.13;102125.84;5220100;28;20041;-78
2022/08/07 17:21:11;;;;;;;4.10;2.60;;;;;;;25.23;36.49;102127.09;5241219;28;20423;-78
2022/08/07 17:24:39;;;;;;;3.03;2.22;;;;;;;25.41;36.50;102128.44;5247668;28;20037;-78
2022/08/07 17:27:17;;;;;;;6.78;2.50;;;;;;;25.33;37.17;102132.25;5235061;28;20122;-78
2022/08/07 17:30:02;;;;;;;4.50;2.33;;;;;;;25.43;37.99;102136.59;5248463;28;20503;-78
2022/08/07 17:33:04;;;;;;;4.32;2.97;;;;;;;25.33;38.42;102138.75;5234219;28;20112;-78
